sensor_id;sensor_type;location;lat;lon;timestamp;temperature;humidity
20546;DHT22;10431;50.228;9.112;2023-05-10T00:01:57;20.60;94.00
20546;DHT22;10431;50.228;9.112;2023-05-10T00:04:23;20.50;94.00
20546;DHT22;10431;50.228;9.112;2023-05-10T00:06:53;20.60;94.00
20546;DHT22;10431;50.228;9.112;2023-05-10T00:09:20;20.60;94.00
20546;DHT22;10431;50.228;9.112;2023-05-10T00:11:46;20.60;94.00
20546;DHT22;10431;50.228;9.112;2023-05-10T00:14:13;20.50;94.00
20546;DHT22;10431;50.228;9.112;2023-05-10T00:16:39;20.60;94.00
20546;DHT22;10431;50.228;9.112;2023-05-10T00:19:05;20.50;94.00
20546;DHT22;10431;50.228;9.112;2023-05-10T00:21:31;20.60;94.00
20546;DHT22;10431;50.228;9.112;2023-05-10T00:23:59;20.50;94.00
20546;DHT22;10431;50.228;9.112;2023-05-10T00:26:26;20.50;94.00
20546;DHT22;10431;50.228;9.112;2023-05-10T00:28:54;20.60;94.00
20546;DHT22;10431;50.228;9.112;2023-05-10T00:31:21;20.50;94.00
20546;DHT22;10431;50.228;9.112;2023-05-10T00:33:47;20.50;94.00
20546;DHT22;10431;50.228;9.112;2023-05-10T00:36:13;20.50;94.10
20546;DHT22;10431;50.228;9.112;2023-05-10T00:38:41;20.50;94.00
20546;DHT22;10431;50.228;9.112;2023-05-10T00:41:07;20.50;94.00
20546;DHT22;10431;50.228;9.112;2023-05-10T00:43:35;20.50;94.00
20546;DHT22;10431;50.228;9.112;2023-05-10T00:46:04;20.50;94.10
20546;DHT22;10431;50.228;9.112;2023-05-10T00:48:30;20.50;94.00
20546;DHT22;10431;50.228;9.112;2023-05-10T00:50:57;20.50;94.10
20546;DHT22;10431;50.228;9.112;2023-05-10T00:53:24;20.50;94.10
20546;DHT22;10431;50.228;9.112;2023-05-10T00:55:50;20.50;94.50
20546;DHT22;10431;50.228;9.112;2023-05-10T00:58:17;20.50;94.40
20546;DHT22;10431;50.228;9.112;2023-05-10T01:00:45;20.50;94.40
20546;DHT22;10431;50.228;9.112;2023-05-10T01:03:12;20.40;94.40
20546;DHT22;10431;50.228;9.112;2023-05-10T01:05:38;20.50;94.30
20546;DHT22;10431;50.228;9.112;2023-05-10T01:08:06;20.50;94.40
20546;DHT22;10431;50.228;9.112;2023-05-10T01:10:32;20.50;94.30
20546;DHT22;10431;50.228;9.112;2023-05-10T01:12:59;20.50;94.40
20546;DHT22;10431;50.228;9.112;2023-05-10T01:15:26;20.50;94.30
20546;DHT22;10431;50.228;9.112;2023-05-10T01:17:52;20.50;94.30
20546;DHT22;10431;50.228;9.112;2023-05-10T01:20:19;20.50;94.30
20546;DHT22;10431;50.228;9.112;2023-05-10T01:23:16;20.50;94.30
20546;DHT22;10431;50.228;9.112;2023-05-10T01:32:10;20.50;94.30
20546;DHT22;10431;50.228;9.112;2023-05-10T01:37:29;20.50;94.20
20546;DHT22;10431;50.228;9.112;2023-05-10T01:40:08;20.50;94.20
20546;DHT22;10431;50.228;9.112;2023-05-10T01:42:43;20.50;94.20
20546;DHT22;10431;50.228;9.112;2023-05-10T01:45:30;20.50;94.20
20546;DHT22;10431;50.228;9.112;2023-05-10T01:48:06;20.50;94.20
20546;DHT22;10431;50.228;9.112;2023-05-10T01:50:35;20.50;94.30
20546;DHT22;10431;50.228;9.112;2023-05-10T01:53:05;20.50;94.20
20546;DHT22;10431;50.228;9.112;2023-05-10T01:55:35;20.40;94.20
20546;DHT22;10431;50.228;9.112;2023-05-10T01:58:08;20.50;94.20
20546;DHT22;10431;50.228;9.112;2023-05-10T02:00:36;20.40;94.10
20546;DHT22;10431;50.228;9.112;2023-05-10T02:03:06;20.40;94.20
20546;DHT22;10431;50.228;9.112;2023-05-10T02:05:33;20.40;94.20
20546;DHT22;10431;50.228;9.112;2023-05-10T02:08:00;20.50;94.20
20546;DHT22;10431;50.228;9.112;2023-05-10T02:10:28;20.50;94.20
20546;DHT22;10431;50.228;9.112;2023-05-10T02:12:55;20.40;94.20
20546;DHT22;10431;50.228;9.112;2023-05-10T02:15:24;20.50;94.20
20546;DHT22;10431;50.228;9.112;2023-05-10T02:17:54;20.50;94.20
20546;DHT22;10431;50.228;9.112;2023-05-10T02:20:22;20.50;94.20
20546;DHT22;10431;50.228;9.112;2023-05-10T02:22:51;20.40;94.20
20546;DHT22;10431;50.228;9.112;2023-05-10T02:25:19;20.50;94.20
20546;DHT22;10431;50.228;9.112;2023-05-10T02:27:48;20.50;94.20
20546;DHT22;10431;50.228;9.112;2023-05-10T02:30:15;20.40;94.20
20546;DHT22;10431;50.228;9.112;2023-05-10T02:32:43;20.40;94.20
20546;DHT22;10431;50.228;9.112;2023-05-10T02:35:10;20.40;94.10
20546;DHT22;10431;50.228;9.112;2023-05-10T02:37:37;20.40;94.20
20546;DHT22;10431;50.228;9.112;2023-05-10T02:40:05;20.40;94.20
20546;DHT22;10431;50.228;9.112;2023-05-10T02:42:35;20.40;94.20
20546;DHT22;10431;50.228;9.112;2023-05-10T02:45:11;20.40;94.20
20546;DHT22;10431;50.228;9.112;2023-05-10T02:47:38;20.40;94.10
20546;DHT22;10431;50.228;9.112;2023-05-10T02:50:05;20.40;94.20
20546;DHT22;10431;50.228;9.112;2023-05-10T02:52:42;20.40;94.20
20546;DHT22;10431;50.228;9.112;2023-05-10T02:55:12;20.40;94.20
20546;DHT22;10431;50.228;9.112;2023-05-10T02:57:46;20.40;94.10
20546;DHT22;10431;50.228;9.112;2023-05-10T03:00:14;20.40;94.10
20546;DHT22;10431;50.228;9.112;2023-05-10T03:02:41;20.40;94.10
20546;DHT22;10431;50.228;9.112;2023-05-10T03:05:08;20.40;94.10
20546;DHT22;10431;50.228;9.112;2023-05-10T03:07:34;20.40;94.10
20546;DHT22;10431;50.228;9.112;2023-05-10T03:10:01;20.40;94.20
20546;DHT22;10431;50.228;9.112;2023-05-10T03:15:18;20.40;94.10
20546;DHT22;10431;50.228;9.112;2023-05-10T03:18:01;20.40;94.10
20546;DHT22;10431;50.228;9.112;2023-05-10T03:20:42;20.40;94.10
20546;DHT22;10431;50.228;9.112;2023-05-10T03:23:46;20.40;94.10
20546;DHT22;10431;50.228;9.112;2023-05-10T03:26:18;20.40;94.20
20546;DHT22;10431;50.228;9.112;2023-05-10T03:28:47;20.40;94.20
20546;DHT22;10431;50.228;9.112;2023-05-10T03:31:14;20.40;94.10
20546;DHT22;10431;50.228;9.112;2023-05-10T03:33:51;20.40;94.20
20546;DHT22;10431;50.228;9.112;2023-05-10T03:36:23;20.40;94.20
20546;DHT22;10431;50.228;9.112;2023-05-10T03:38:50;20.40;94.20
20546;DHT22;10431;50.228;9.112;2023-05-10T03:41:16;20.40;94.20
20546;DHT22;10431;50.228;9.112;2023-05-10T03:43:43;20.40;94.10
20546;DHT22;10431;50.228;9.112;2023-05-10T03:46:09;20.40;94.10
20546;DHT22;10431;50.228;9.112;2023-05-10T03:48:35;20.40;94.20
20546;DHT22;10431;50.228;9.112;2023-05-10T03:51:01;20.40;94.20
20546;DHT22;10431;50.228;9.112;2023-05-10T03:53:28;20.40;94.20
20546;DHT22;10431;50.228;9.112;2023-05-10T03:55:54;20.40;94.20
20546;DHT22;10431;50.228;9.112;2023-05-10T03:58:20;20.30;94.20
20546;DHT22;10431;50.228;9.112;2023-05-10T04:00:47;20.40;94.20
20546;DHT22;10431;50.228;9.112;2023-05-10T04:03:14;20.40;94.20
20546;DHT22;10431;50.228;9.112;2023-05-10T04:05:40;20.30;94.20
20546;DHT22;10431;50.228;9.112;2023-05-10T04:08:07;20.30;94.20
20546;DHT22;10431;50.228;9.112;2023-05-10T04:10:33;20.30;94.20
20546;DHT22;10431;50.228;9.112;2023-05-10T04:12:59;20.40;94.20
20546;DHT22;10431;50.228;9.112;2023-05-10T04:15:25;20.30;94.20
20546;DHT22;10431;50.228;9.112;2023-05-10T04:17:52;20.40;94.20
20546;DHT22;10431;50.228;9.112;2023-05-10T04:20:18;20.30;94.20
20546;DHT22;10431;50.228;9.112;2023-05-10T04:22:44;20.40;94.20
20546;DHT22;10431;50.228;9.112;2023-05-10T04:25:10;20.30;94.20
20546;DHT22;10431;50.228;9.112;2023-05-10T04:27:37;20.40;94.20
20546;DHT22;10431;50.228;9.112;2023-05-10T04:30:04;20.30;94.20
20546;DHT22;10431;50.228;9.112;2023-05-10T04:32:30;20.40;94.20
20546;DHT22;10431;50.228;9.112;2023-05-10T04:34:57;20.30;94.20
20546;DHT22;10431;50.228;9.112;2023-05-10T04:37:23;20.30;94.20
20546;DHT22;10431;50.228;9.112;2023-05-10T04:39:49;20.30;94.20
20546;DHT22;10431;50.228;9.112;2023-05-10T04:42:16;20.30;94.20
20546;DHT22;10431;50.228;9.112;2023-05-10T04:44:42;20.40;94.20
20546;DHT22;10431;50.228;9.112;2023-05-10T04:47:08;20.30;94.20
20546;DHT22;10431;50.228;9.112;2023-05-10T04:49:34;20.30;94.20
20546;DHT22;10431;50.228;9.112;2023-05-10T04:52:00;20.30;94.20
20546;DHT22;10431;50.228;9.112;2023-05-10T04:54:27;20.40;94.20
20546;DHT22;10431;50.228;9.112;2023-05-10T04:56:53;20.30;94.20
20546;DHT22;10431;50.228;9.112;2023-05-10T04:59:19;20.40;94.20
20546;DHT22;10431;50.228;9.112;2023-05-10T05:01:45;20.30;94.00
20546;DHT22;10431;50.228;9.112;2023-05-10T05:04:11;20.40;94.00
20546;DHT22;10431;50.228;9.112;2023-05-10T05:06:37;20.40;93.90
20546;DHT22;10431;50.228;9.112;2023-05-10T05:09:04;20.40;93.80
20546;DHT22;10431;50.228;9.112;2023-05-10T05:11:30;20.40;93.70
20546;DHT22;10431;50.228;9.112;2023-05-10T05:13:56;20.40;93.70
20546;DHT22;10431;50.228;9.112;2023-05-10T05:16:24;20.50;93.70
20546;DHT22;10431;50.228;9.112;2023-05-10T05:18:51;20.40;93.80
20546;DHT22;10431;50.228;9.112;2023-05-10T05:21:18;20.20;94.00
20546;DHT22;10431;50.228;9.112;2023-05-10T05:23:45;20.00;94.30
20546;DHT22;10431;50.228;9.112;2023-05-10T05:26:12;20.00;94.40
20546;DHT22;10431;50.228;9.112;2023-05-10T05:28:38;19.90;94.50
20546;DHT22;10431;50.228;9.112;2023-05-10T05:31:05;19.90;94.60
20546;DHT22;10431;50.228;9.112;2023-05-10T05:33:32;19.90;94.60
20546;DHT22;10431;50.228;9.112;2023-05-10T05:36:00;19.80;94.80
20546;DHT22;10431;50.228;9.112;2023-05-10T05:38:27;19.70;95.00
20546;DHT22;10431;50.228;9.112;2023-05-10T05:40:53;19.70;95.30
20546;DHT22;10431;50.228;9.112;2023-05-10T05:43:19;19.80;95.30
20546;DHT22;10431;50.228;9.112;2023-05-10T05:45:45;20.00;94.80
20546;DHT22;10431;50.228;9.112;2023-05-10T05:48:12;20.10;94.50
20546;DHT22;10431;50.228;9.112;2023-05-10T05:50:38;20.10;94.30
20546;DHT22;10431;50.228;9.112;2023-05-10T05:53:04;20.20;94.10
20546;DHT22;10431;50.228;9.112;2023-05-10T05:55:30;20.20;94.00
20546;DHT22;10431;50.228;9.112;2023-05-10T05:57:57;20.30;94.00
20546;DHT22;10431;50.228;9.112;2023-05-10T06:00:24;20.30;93.90
20546;DHT22;10431;50.228;9.112;2023-05-10T06:02:50;20.30;93.80
20546;DHT22;10431;50.228;9.112;2023-05-10T06:05:16;20.30;93.90
20546;DHT22;10431;50.228;9.112;2023-05-10T06:07:43;20.30;93.80
20546;DHT22;10431;50.228;9.112;2023-05-10T06:10:09;20.30;93.80
20546;DHT22;10431;50.228;9.112;2023-05-10T06:12:36;20.30;93.80
20546;DHT22;10431;50.228;9.112;2023-05-10T06:15:03;20.40;93.70
20546;DHT22;10431;50.228;9.112;2023-05-10T06:17:29;20.40;93.90
20546;DHT22;10431;50.228;9.112;2023-05-10T06:19:55;20.40;93.80
20546;DHT22;10431;50.228;9.112;2023-05-10T06:22:22;20.30;93.90
20546;DHT22;10431;50.228;9.112;2023-05-10T06:24:49;20.40;93.80
20546;DHT22;10431;50.228;9.112;2023-05-10T06:27:15;20.40;93.80
20546;DHT22;10431;50.228;9.112;2023-05-10T06:29:41;20.40;93.80
20546;DHT22;10431;50.228;9.112;2023-05-10T06:32:08;20.40;93.80
20546;DHT22;10431;50.228;9.112;2023-05-10T06:34:34;20.40;93.90
20546;DHT22;10431;50.228;9.112;2023-05-10T06:37:00;20.40;93.80
20546;DHT22;10431;50.228;9.112;2023-05-10T06:39:26;20.40;94.20
20546;DHT22;10431;50.228;9.112;2023-05-10T06:41:52;20.40;94.50
20546;DHT22;10431;50.228;9.112;2023-05-10T06:44:20;20.50;94.60
20546;DHT22;10431;50.228;9.112;2023-05-10T06:46:46;20.50;93.70
20546;DHT22;10431;50.228;9.112;2023-05-10T06:49:12;20.50;93.60
20546;DHT22;10431;50.228;9.112;2023-05-10T06:51:38;20.50;93.50
20546;DHT22;10431;50.228;9.112;2023-05-10T06:54:06;20.50;93.50
20546;DHT22;10431;50.228;9.112;2023-05-10T06:56:32;20.50;93.60
20546;DHT22;10431;50.228;9.112;2023-05-10T06:58:59;20.40;93.60
20546;DHT22;10431;50.228;9.112;2023-05-10T07:01:25;20.40;93.50
20546;DHT22;10431;50.228;9.112;2023-05-10T07:03:51;20.50;93.60
20546;DHT22;10431;50.228;9.112;2023-05-10T07:06:18;20.50;94.20
20546;DHT22;10431;50.228;9.112;2023-05-10T07:08:44;20.50;93.70
20546;DHT22;10431;50.228;9.112;2023-05-10T07:11:10;20.50;93.60
20546;DHT22;10431;50.228;9.112;2023-05-10T07:13:36;20.50;93.60
20546;DHT22;10431;50.228;9.112;2023-05-10T07:16:05;20.50;93.60
20546;DHT22;10431;50.228;9.112;2023-05-10T07:18:32;20.50;93.60
20546;DHT22;10431;50.228;9.112;2023-05-10T07:20:58;20.50;93.60
20546;DHT22;10431;50.228;9.112;2023-05-10T07:23:24;20.50;93.60
20546;DHT22;10431;50.228;9.112;2023-05-10T07:25:51;20.50;93.70
20546;DHT22;10431;50.228;9.112;2023-05-10T07:28:18;20.50;93.70
20546;DHT22;10431;50.228;9.112;2023-05-10T07:30:45;20.50;93.70
20546;DHT22;10431;50.228;9.112;2023-05-10T07:33:13;20.40;93.60
20546;DHT22;10431;50.228;9.112;2023-05-10T07:35:39;20.50;93.60
20546;DHT22;10431;50.228;9.112;2023-05-10T07:38:05;20.50;93.60
20546;DHT22;10431;50.228;9.112;2023-05-10T07:40:32;20.40;93.60
20546;DHT22;10431;50.228;9.112;2023-05-10T07:42:58;20.50;93.60
20546;DHT22;10431;50.228;9.112;2023-05-10T07:45:25;20.50;93.60
20546;DHT22;10431;50.228;9.112;2023-05-10T07:47:51;20.50;93.50
20546;DHT22;10431;50.228;9.112;2023-05-10T07:50:18;20.50;93.50
20546;DHT22;10431;50.228;9.112;2023-05-10T07:52:44;20.50;93.40
20546;DHT22;10431;50.228;9.112;2023-05-10T07:55:10;20.50;93.50
20546;DHT22;10431;50.228;9.112;2023-05-10T07:57:37;20.50;93.40
20546;DHT22;10431;50.228;9.112;2023-05-10T08:00:04;20.50;93.40
20546;DHT22;10431;50.228;9.112;2023-05-10T08:02:39;20.50;93.40
20546;DHT22;10431;50.228;9.112;2023-05-10T08:05:06;20.50;93.40
20546;DHT22;10431;50.228;9.112;2023-05-10T08:07:32;20.50;93.40
20546;DHT22;10431;50.228;9.112;2023-05-10T08:09:58;20.50;93.80
20546;DHT22;10431;50.228;9.112;2023-05-10T08:12:24;20.50;93.40
20546;DHT22;10431;50.228;9.112;2023-05-10T08:14:51;20.50;93.40
20546;DHT22;10431;50.228;9.112;2023-05-10T08:17:17;20.50;93.40
20546;DHT22;10431;50.228;9.112;2023-05-10T08:19:43;20.50;93.50
20546;DHT22;10431;50.228;9.112;2023-05-10T08:22:09;20.50;93.40
20546;DHT22;10431;50.228;9.112;2023-05-10T08:24:36;20.50;93.40
20546;DHT22;10431;50.228;9.112;2023-05-10T08:27:08;20.50;93.40
20546;DHT22;10431;50.228;9.112;2023-05-10T08:29:34;20.50;93.40
20546;DHT22;10431;50.228;9.112;2023-05-10T08:32:00;20.50;93.40
20546;DHT22;10431;50.228;9.112;2023-05-10T08:34:27;20.20;94.00
20546;DHT22;10431;50.228;9.112;2023-05-10T08:36:53;19.90;94.60
20546;DHT22;10431;50.228;9.112;2023-05-10T08:39:19;19.80;95.40
20546;DHT22;10431;50.228;9.112;2023-05-10T08:41:47;19.70;95.80
20546;DHT22;10431;50.228;9.112;2023-05-10T08:44:14;19.60;96.10
20546;DHT22;10431;50.228;9.112;2023-05-10T08:46:41;19.50;96.10
20546;DHT22;10431;50.228;9.112;2023-05-10T08:49:11;19.50;96.30
20546;DHT22;10431;50.228;9.112;2023-05-10T08:51:41;19.50;96.70
20546;DHT22;10431;50.228;9.112;2023-05-10T08:54:08;19.50;96.50
20546;DHT22;10431;50.228;9.112;2023-05-10T08:56:34;19.50;96.50
20546;DHT22;10431;50.228;9.112;2023-05-10T08:59:01;19.80;96.10
20546;DHT22;10431;50.228;9.112;2023-05-10T09:01:27;19.90;95.70
20546;DHT22;10431;50.228;9.112;2023-05-10T09:03:54;20.00;95.60
20546;DHT22;10431;50.228;9.112;2023-05-10T09:06:21;19.80;95.80
20546;DHT22;10431;50.228;9.112;2023-05-10T09:08:47;19.80;96.10
20546;DHT22;10431;50.228;9.112;2023-05-10T09:11:14;19.70;96.60
20546;DHT22;10431;50.228;9.112;2023-05-10T09:13:40;19.50;96.80
20546;DHT22;10431;50.228;9.112;2023-05-10T09:16:07;19.60;97.10
20546;DHT22;10431;50.228;9.112;2023-05-10T09:18:33;19.60;97.30
20546;DHT22;10431;50.228;9.112;2023-05-10T09:21:00;19.80;96.70
20546;DHT22;10431;50.228;9.112;2023-05-10T09:23:26;20.00;96.20
20546;DHT22;10431;50.228;9.112;2023-05-10T09:26:07;20.10;95.80
20546;DHT22;10431;50.228;9.112;2023-05-10T09:28:53;20.10;95.60
20546;DHT22;10431;50.228;9.112;2023-05-10T09:31:20;20.20;95.50
20546;DHT22;10431;50.228;9.112;2023-05-10T09:33:48;20.20;95.30
20546;DHT22;10431;50.228;9.112;2023-05-10T09:36:16;20.30;95.20
20546;DHT22;10431;50.228;9.112;2023-05-10T09:38:50;20.30;95.30
20546;DHT22;10431;50.228;9.112;2023-05-10T09:41:18;20.30;95.40
20546;DHT22;10431;50.228;9.112;2023-05-10T09:43:45;20.40;95.50
20546;DHT22;10431;50.228;9.112;2023-05-10T09:46:11;20.40;95.60
20546;DHT22;10431;50.228;9.112;2023-05-10T09:48:45;20.40;95.60
20546;DHT22;10431;50.228;9.112;2023-05-10T09:51:19;20.40;95.60
20546;DHT22;10431;50.228;9.112;2023-05-10T09:53:46;20.40;95.60
20546;DHT22;10431;50.228;9.112;2023-05-10T09:56:12;20.40;95.30
20546;DHT22;10431;50.228;9.112;2023-05-10T09:58:39;20.40;94.80
20546;DHT22;10431;50.228;9.112;2023-05-10T10:01:11;20.40;94.60
20546;DHT22;10431;50.228;9.112;2023-05-10T10:03:42;20.40;94.50
20546;DHT22;10431;50.228;9.112;2023-05-10T10:06:08;20.40;94.50
20546;DHT22;10431;50.228;9.112;2023-05-10T10:08:34;20.40;94.60
20546;DHT22;10431;50.228;9.112;2023-05-10T10:11:01;20.40;94.60
20546;DHT22;10431;50.228;9.112;2023-05-10T10:13:28;20.40;94.60
20546;DHT22;10431;50.228;9.112;2023-05-10T10:15:55;20.40;94.60
20546;DHT22;10431;50.228;9.112;2023-05-10T10:18:21;20.40;94.60
20546;DHT22;10431;50.228;9.112;2023-05-10T10:20:54;20.40;94.90
20546;DHT22;10431;50.228;9.112;2023-05-10T10:23:21;20.40;94.50
20546;DHT22;10431;50.228;9.112;2023-05-10T10:25:48;20.40;94.80
20546;DHT22;10431;50.228;9.112;2023-05-10T10:31:34;20.40;94.40
20546;DHT22;10431;50.228;9.112;2023-05-10T10:34:07;20.40;94.40
20546;DHT22;10431;50.228;9.112;2023-05-10T10:36:54;20.40;94.40
20546;DHT22;10431;50.228;9.112;2023-05-10T10:39:20;20.40;94.70
20546;DHT22;10431;50.228;9.112;2023-05-10T10:41:57;20.40;94.50
20546;DHT22;10431;50.228;9.112;2023-05-10T10:49:49;20.40;94.40
20546;DHT22;10431;50.228;9.112;2023-05-10T10:55:18;20.40;94.70
20546;DHT22;10431;50.228;9.112;2023-05-10T10:58:03;20.40;94.60
20546;DHT22;10431;50.228;9.112;2023-05-10T11:00:31;20.40;94.70
20546;DHT22;10431;50.228;9.112;2023-05-10T11:03:05;20.40;94.60
20546;DHT22;10431;50.228;9.112;2023-05-10T11:05:48;20.40;94.70
20546;DHT22;10431;50.228;9.112;2023-05-10T11:08:39;20.40;94.60
20546;DHT22;10431;50.228;9.112;2023-05-10T11:11:06;20.40;94.40
20546;DHT22;10431;50.228;9.112;2023-05-10T11:16:23;20.40;95.00
20546;DHT22;10431;50.228;9.112;2023-05-10T11:19:06;20.40;95.50
20546;DHT22;10431;50.228;9.112;2023-05-10T11:21:34;20.40;95.40
20546;DHT22;10431;50.228;9.112;2023-05-10T11:24:15;20.40;95.60
20546;DHT22;10431;50.228;9.112;2023-05-10T11:26:42;20.40;95.70
20546;DHT22;10431;50.228;9.112;2023-05-10T11:29:08;20.40;95.70
20546;DHT22;10431;50.228;9.112;2023-05-10T11:31:35;20.40;95.70
20546;DHT22;10431;50.228;9.112;2023-05-10T11:34:01;20.40;95.60
20546;DHT22;10431;50.228;9.112;2023-05-10T11:36:29;20.40;95.40
20546;DHT22;10431;50.228;9.112;2023-05-10T11:38:57;20.40;95.10
20546;DHT22;10431;50.228;9.112;2023-05-10T11:41:24;20.40;95.00
20546;DHT22;10431;50.228;9.112;2023-05-10T11:43:54;20.40;95.00
20546;DHT22;10431;50.228;9.112;2023-05-10T11:46:23;20.40;95.60
20546;DHT22;10431;50.228;9.112;2023-05-10T11:48:51;20.40;95.70
20546;DHT22;10431;50.228;9.112;2023-05-10T11:51:24;20.40;96.30
20546;DHT22;10431;50.228;9.112;2023-05-10T11:53:53;20.40;96.00
20546;DHT22;10431;50.228;9.112;2023-05-10T11:56:20;20.40;96.30
20546;DHT22;10431;50.228;9.112;2023-05-10T11:58:55;20.50;96.50
20546;DHT22;10431;50.228;9.112;2023-05-10T12:01:26;20.50;96.70
20546;DHT22;10431;50.228;9.112;2023-05-10T12:03:54;20.50;96.10
20546;DHT22;10431;50.228;9.112;2023-05-10T12:06:21;20.40;96.00
20546;DHT22;10431;50.228;9.112;2023-05-10T12:08:48;20.40;95.50
20546;DHT22;10431;50.228;9.112;2023-05-10T12:11:19;20.30;95.20
20546;DHT22;10431;50.228;9.112;2023-05-10T12:13:48;20.30;95.30
20546;DHT22;10431;50.228;9.112;2023-05-10T12:16:25;20.40;95.20
20546;DHT22;10431;50.228;9.112;2023-05-10T12:18:52;20.40;95.20
20546;DHT22;10431;50.228;9.112;2023-05-10T12:21:20;20.40;95.20
20546;DHT22;10431;50.228;9.112;2023-05-10T12:23:51;20.40;95.20
20546;DHT22;10431;50.228;9.112;2023-05-10T12:26:17;20.40;95.10
20546;DHT22;10431;50.228;9.112;2023-05-10T12:28:43;20.40;95.00
20546;DHT22;10431;50.228;9.112;2023-05-10T12:31:10;20.40;95.20
20546;DHT22;10431;50.228;9.112;2023-05-10T12:33:38;20.40;95.10
20546;DHT22;10431;50.228;9.112;2023-05-10T12:36:15;20.40;95.10
20546;DHT22;10431;50.228;9.112;2023-05-10T12:38:44;20.40;95.20
20546;DHT22;10431;50.228;9.112;2023-05-10T12:41:14;20.50;95.20
20546;DHT22;10431;50.228;9.112;2023-05-10T12:43:40;20.50;95.30
20546;DHT22;10431;50.228;9.112;2023-05-10T12:46:11;20.50;95.30
20546;DHT22;10431;50.228;9.112;2023-05-10T12:48:39;20.50;95.30
20546;DHT22;10431;50.228;9.112;2023-05-10T12:51:07;20.50;95.30
20546;DHT22;10431;50.228;9.112;2023-05-10T12:53:41;20.50;95.30
20546;DHT22;10431;50.228;9.112;2023-05-10T12:56:07;20.50;95.30
20546;DHT22;10431;50.228;9.112;2023-05-10T12:58:34;20.40;95.30
20546;DHT22;10431;50.228;9.112;2023-05-10T13:01:00;20.40;95.40
20546;DHT22;10431;50.228;9.112;2023-05-10T13:03:27;20.40;95.40
20546;DHT22;10431;50.228;9.112;2023-05-10T13:05:53;20.40;95.40
20546;DHT22;10431;50.228;9.112;2023-05-10T13:08:19;20.40;95.40
20546;DHT22;10431;50.228;9.112;2023-05-10T13:10:45;20.40;95.40
20546;DHT22;10431;50.228;9.112;2023-05-10T13:13:12;20.40;95.40
20546;DHT22;10431;50.228;9.112;2023-05-10T13:15:38;20.40;95.40
20546;DHT22;10431;50.228;9.112;2023-05-10T13:18:04;20.40;95.40
20546;DHT22;10431;50.228;9.112;2023-05-10T13:20:30;20.40;95.40
20546;DHT22;10431;50.228;9.112;2023-05-10T13:22:56;20.40;95.50
20546;DHT22;10431;50.228;9.112;2023-05-10T13:25:23;20.40;95.50
20546;DHT22;10431;50.228;9.112;2023-05-10T13:27:49;20.40;95.60
20546;DHT22;10431;50.228;9.112;2023-05-10T13:30:15;20.40;95.50
20546;DHT22;10431;50.228;9.112;2023-05-10T13:32:41;20.40;95.60
20546;DHT22;10431;50.228;9.112;2023-05-10T13:35:08;20.40;95.60
20546;DHT22;10431;50.228;9.112;2023-05-10T13:37:34;20.40;95.60
20546;DHT22;10431;50.228;9.112;2023-05-10T13:40:04;20.40;95.60
20546;DHT22;10431;50.228;9.112;2023-05-10T13:42:30;20.40;95.60
20546;DHT22;10431;50.228;9.112;2023-05-10T13:44:59;20.40;95.70
20546;DHT22;10431;50.228;9.112;2023-05-10T13:47:27;20.50;95.70
20546;DHT22;10431;50.228;9.112;2023-05-10T13:49:54;20.40;95.60
20546;DHT22;10431;50.228;9.112;2023-05-10T13:52:20;20.50;95.70
20546;DHT22;10431;50.228;9.112;2023-05-10T13:54:46;20.50;95.70
20546;DHT22;10431;50.228;9.112;2023-05-10T13:57:12;20.50;95.70
20546;DHT22;10431;50.228;9.112;2023-05-10T13:59:40;20.50;95.60
20546;DHT22;10431;50.228;9.112;2023-05-10T14:02:06;20.50;95.60
20546;DHT22;10431;50.228;9.112;2023-05-10T14:04:32;20.50;95.90
20546;DHT22;10431;50.228;9.112;2023-05-10T14:07:00;20.50;95.60
20546;DHT22;10431;50.228;9.112;2023-05-10T14:09:26;20.50;95.60
20546;DHT22;10431;50.228;9.112;2023-05-10T14:11:52;20.50;95.60
20546;DHT22;10431;50.228;9.112;2023-05-10T14:14:18;20.50;95.50
20546;DHT22;10431;50.228;9.112;2023-05-10T14:16:45;20.50;95.50
20546;DHT22;10431;50.228;9.112;2023-05-10T14:19:11;20.50;95.30
20546;DHT22;10431;50.228;9.112;2023-05-10T14:21:38;20.50;95.30
20546;DHT22;10431;50.228;9.112;2023-05-10T14:24:04;20.50;95.10
20546;DHT22;10431;50.228;9.112;2023-05-10T14:26:30;20.40;95.00
20546;DHT22;10431;50.228;9.112;2023-05-10T14:28:57;20.40;95.60
20546;DHT22;10431;50.228;9.112;2023-05-10T14:31:24;20.30;95.60
20546;DHT22;10431;50.228;9.112;2023-05-10T14:33:51;20.30;95.70
20546;DHT22;10431;50.228;9.112;2023-05-10T14:36:18;20.30;95.70
20546;DHT22;10431;50.228;9.112;2023-05-10T14:38:44;20.20;95.50
20546;DHT22;10431;50.228;9.112;2023-05-10T14:41:10;20.20;95.70
20546;DHT22;10431;50.228;9.112;2023-05-10T14:43:40;20.20;95.30
20546;DHT22;10431;50.228;9.112;2023-05-10T14:46:07;20.20;95.40
20546;DHT22;10431;50.228;9.112;2023-05-10T14:48:33;20.20;95.40
20546;DHT22;10431;50.228;9.112;2023-05-10T14:50:59;20.20;95.40
20546;DHT22;10431;50.228;9.112;2023-05-10T14:53:25;20.20;95.60
20546;DHT22;10431;50.228;9.112;2023-05-10T14:55:52;20.20;95.40
20546;DHT22;10431;50.228;9.112;2023-05-10T14:58:18;20.30;95.50
20546;DHT22;10431;50.228;9.112;2023-05-10T15:00:47;20.30;95.50
20546;DHT22;10431;50.228;9.112;2023-05-10T15:03:13;20.30;95.60
20546;DHT22;10431;50.228;9.112;2023-05-10T15:05:39;20.30;95.50
20546;DHT22;10431;50.228;9.112;2023-05-10T15:08:06;20.30;95.50
20546;DHT22;10431;50.228;9.112;2023-05-10T15:10:32;20.30;95.50
20546;DHT22;10431;50.228;9.112;2023-05-10T15:12:59;20.30;95.70
20546;DHT22;10431;50.228;9.112;2023-05-10T15:15:25;20.30;95.60
20546;DHT22;10431;50.228;9.112;2023-05-10T15:17:51;20.30;95.40
20546;DHT22;10431;50.228;9.112;2023-05-10T15:20:18;20.20;95.70
20546;DHT22;10431;50.228;9.112;2023-05-10T15:22:44;20.20;95.70
20546;DHT22;10431;50.228;9.112;2023-05-10T15:25:10;20.20;95.50
20546;DHT22;10431;50.228;9.112;2023-05-10T15:27:36;20.30;95.30
20546;DHT22;10431;50.228;9.112;2023-05-10T15:30:03;20.30;95.30
20546;DHT22;10431;50.228;9.112;2023-05-10T15:32:29;20.30;95.20
20546;DHT22;10431;50.228;9.112;2023-05-10T15:34:55;20.40;95.50
20546;DHT22;10431;50.228;9.112;2023-05-10T15:37:22;20.40;95.30
20546;DHT22;10431;50.228;9.112;2023-05-10T15:39:49;20.40;95.30
20546;DHT22;10431;50.228;9.112;2023-05-10T15:42:16;20.30;95.30
20546;DHT22;10431;50.228;9.112;2023-05-10T15:44:42;20.30;95.30
20546;DHT22;10431;50.228;9.112;2023-05-10T15:47:10;20.30;95.20
20546;DHT22;10431;50.228;9.112;2023-05-10T15:49:36;20.40;95.30
20546;DHT22;10431;50.228;9.112;2023-05-10T15:52:02;20.40;95.20
20546;DHT22;10431;50.228;9.112;2023-05-10T15:54:28;20.30;95.20
20546;DHT22;10431;50.228;9.112;2023-05-10T15:56:55;20.30;95.30
20546;DHT22;10431;50.228;9.112;2023-05-10T15:59:21;20.40;95.20
20546;DHT22;10431;50.228;9.112;2023-05-10T16:01:48;20.40;95.00